createdAt,value
2019-03-28T00:01:02.066Z,93.60
2019-03-28T00:03:30.915Z,93.60
2019-03-28T00:05:58.744Z,93.60
2019-03-28T00:08:29.659Z,93.60
2019-03-28T00:10:57.483Z,93.60
2019-03-28T00:13:25.800Z,93.60
2019-03-28T00:15:56.335Z,93.60
2019-03-28T00:18:25.467Z,93.60
2019-03-28T00:20:57.067Z,93.50
2019-03-28T00:23:33.263Z,93.40
2019-03-28T00:26:05.544Z,93.40
2019-03-28T00:28:35.043Z,93.40
2019-03-28T00:31:02.900Z,93.40
2019-03-28T00:33:30.806Z,93.40
2019-03-28T00:36:02.822Z,93.40
2019-03-28T00:38:35.498Z,93.30
2019-03-28T00:41:03.532Z,93.30
2019-03-28T00:43:31.491Z,93.30
2019-03-28T00:46:01.626Z,93.30
2019-03-28T00:48:31.348Z,93.30
2019-03-28T00:51:00.162Z,93.10
2019-03-28T00:53:31.489Z,93.20
2019-03-28T00:56:00.202Z,93.20
2019-03-28T00:58:29.300Z,93.20
2019-03-28T01:00:57.182Z,93.20
2019-03-28T01:03:25.024Z,93.20
2019-03-28T01:05:53.412Z,93.20
2019-03-28T01:08:22.625Z,93.10
2019-03-28T01:10:50.602Z,93.10
2019-03-28T01:13:20.184Z,93.10
2019-03-28T01:15:49.235Z,93.10
2019-03-28T01:18:17.322Z,93.10
2019-03-28T01:20:45.250Z,93.10
2019-03-28T01:23:15.854Z,93.10
2019-03-28T01:25:45.338Z,93.20
2019-03-28T01:28:13.732Z,93.20
2019-03-28T01:30:43.424Z,93.20
2019-03-28T01:33:12.916Z,93.20
2019-03-28T01:35:42.057Z,93.20
2019-03-28T01:38:09.922Z,93.20
2019-03-28T01:40:38.137Z,93.20
2019-03-28T01:43:07.392Z,93.20
2019-03-28T01:45:36.466Z,93.30
2019-03-28T01:48:04.718Z,93.30
2019-03-28T01:50:33.888Z,93.30
2019-03-28T01:53:02.730Z,93.30
2019-03-28T01:55:31.638Z,93.30
2019-03-28T01:58:00.631Z,93.30
2019-03-28T02:00:30.904Z,93.30
2019-03-28T02:02:58.729Z,93.40
2019-03-28T02:05:26.652Z,93.50
2019-03-28T02:07:54.499Z,93.50
2019-03-28T02:10:30.749Z,93.50
2019-03-28T02:12:58.620Z,93.50
2019-03-28T02:15:28.828Z,93.50
2019-03-28T02:17:56.639Z,93.50
2019-03-28T02:20:24.520Z,93.50
2019-03-28T02:22:53.502Z,93.40
2019-03-28T02:25:21.400Z,93.40
2019-03-28T02:27:49.330Z,93.50
2019-03-28T02:30:20.842Z,93.50
2019-03-28T02:32:49.295Z,93.50
2019-03-28T02:35:17.127Z,93.50
2019-03-28T02:37:44.988Z,93.50
2019-03-28T02:40:12.831Z,93.50
2019-03-28T02:42:40.701Z,93.50
2019-03-28T02:45:08.536Z,93.50
2019-03-28T02:47:38.053Z,93.50
2019-03-28T02:50:07.854Z,93.50
2019-03-28T02:52:35.761Z,93.40
2019-03-28T02:55:04.257Z,93.40
2019-03-28T02:57:40.887Z,93.40
2019-03-28T03:00:02.403Z,93.50
2019-03-28T03:02:30.307Z,93.40
2019-03-28T03:04:58.532Z,93.40
2019-03-28T03:07:26.427Z,93.50
2019-03-28T03:09:54.415Z,93.50
2019-03-28T03:12:22.242Z,93.50
2019-03-28T03:14:50.047Z,93.50
2019-03-28T03:17:18.767Z,93.40
2019-03-28T03:19:46.601Z,93.40
2019-03-28T03:22:16.542Z,93.40
2019-03-28T03:24:47.282Z,93.40
2019-03-28T03:27:16.172Z,93.50
2019-03-28T03:29:46.966Z,93.50
2019-03-28T03:32:16.456Z,93.50
2019-03-28T03:34:44.261Z,93.50
2019-03-28T03:37:12.108Z,93.50
2019-03-28T03:39:42.820Z,93.50
2019-03-28T03:42:10.699Z,93.50
2019-03-28T03:44:38.997Z,93.60
2019-03-28T03:47:06.920Z,93.60
2019-03-28T03:49:36.168Z,93.70
2019-03-28T03:52:07.306Z,93.70
2019-03-28T03:54:35.222Z,93.70
2019-03-28T03:57:03.228Z,93.70
2019-03-28T03:59:32.783Z,93.80
2019-03-28T04:02:00.711Z,93.90
2019-03-28T04:04:30.439Z,93.90
2019-03-28T04:06:58.560Z,93.90
2019-03-28T04:09:29.168Z,93.90
2019-03-28T04:11:57.556Z,93.90
2019-03-28T04:14:26.060Z,94.00
2019-03-28T04:16:54.071Z,94.00
2019-03-28T04:19:27.567Z,94.00
2019-03-28T04:21:57.106Z,94.00
2019-03-28T04:24:25.057Z,93.90
2019-03-28T04:29:44.027Z,94.00
2019-03-28T04:32:13.154Z,94.00
2019-03-28T04:34:43.831Z,94.00
2019-03-28T04:37:12.799Z,94.00
2019-03-28T04:39:40.686Z,94.00
2019-03-28T04:42:10.235Z,94.00
2019-03-28T04:44:38.180Z,94.00
2019-03-28T04:47:07.249Z,94.10
2019-03-28T04:49:36.862Z,94.10
2019-03-28T04:52:07.203Z,94.00
2019-03-28T04:54:35.119Z,94.00
2019-03-28T04:57:03.030Z,93.90
2019-03-28T04:59:32.082Z,93.90
2019-03-28T05:02:03.739Z,93.80
2019-03-28T05:04:33.455Z,93.60
2019-03-28T05:07:01.368Z,93.50
2019-03-28T05:09:29.287Z,93.40
2019-03-28T05:11:59.419Z,93.30
2019-03-28T05:14:28.564Z,93.20
2019-03-28T05:16:57.749Z,93.10
2019-03-28T05:19:26.067Z,92.90
2019-03-28T05:21:53.971Z,92.70
2019-03-28T05:24:21.949Z,92.70
2019-03-28T05:26:49.845Z,92.60
2019-03-28T05:29:17.901Z,92.50
2019-03-28T05:31:46.398Z,92.40
2019-03-28T05:34:14.796Z,92.10
2019-03-28T05:36:42.800Z,92.10
2019-03-28T05:39:10.849Z,92.00
2019-03-28T05:41:38.723Z,92.10
2019-03-28T05:44:06.886Z,91.90
2019-03-28T05:46:36.045Z,91.90
2019-03-28T05:49:06.684Z,91.90
2019-03-28T05:51:34.891Z,91.90
2019-03-28T05:54:02.848Z,91.90
2019-03-28T05:56:31.921Z,91.90
2019-03-28T05:59:10.101Z,91.80
2019-03-28T06:01:29.320Z,91.60
2019-03-28T06:03:59.879Z,91.40
2019-03-28T06:06:27.778Z,91.40
2019-03-28T06:08:55.880Z,91.10
2019-03-28T06:11:23.979Z,90.90
2019-03-28T06:13:53.187Z,90.70
2019-03-28T06:16:22.455Z,90.30
2019-03-28T06:18:50.389Z,90.20
2019-03-28T06:21:18.259Z,90.20
2019-03-28T06:23:47.964Z,90.30
2019-03-28T06:26:15.878Z,90.30
2019-03-28T06:28:43.874Z,90.20
2019-03-28T06:31:11.693Z,90.30
2019-03-28T06:33:39.753Z,90.30
2019-03-28T06:36:10.231Z,90.00
2019-03-28T06:38:38.088Z,90.10
2019-03-28T06:41:07.463Z,89.30
2019-03-28T06:43:36.863Z,88.60
2019-03-28T06:46:04.970Z,88.10
2019-03-28T06:48:33.474Z,87.70
2019-03-28T06:51:01.554Z,87.50
2019-03-28T06:53:29.681Z,86.90
2019-03-28T06:55:57.601Z,86.40
2019-03-28T06:58:32.331Z,86.50
2019-03-28T07:01:02.060Z,86.30
2019-03-28T07:03:31.524Z,85.80
2019-03-28T07:05:59.466Z,85.20
2019-03-28T07:08:28.583Z,84.70
2019-03-28T07:10:58.178Z,84.40
2019-03-28T07:13:27.971Z,83.50
2019-03-28T07:15:55.889Z,82.80
2019-03-28T07:18:24.091Z,82.30
2019-03-28T07:20:52.438Z,82.30
2019-03-28T07:23:21.840Z,82.40
2019-03-28T07:25:50.975Z,82.10
2019-03-28T07:28:19.340Z,81.60
2019-03-28T07:30:47.945Z,80.80
2019-03-28T07:33:17.822Z,79.70
2019-03-28T07:35:45.990Z,78.70
2019-03-28T07:38:16.449Z,77.80
2019-03-28T07:40:44.507Z,76.30
2019-03-28T07:43:12.371Z,74.70
2019-03-28T07:45:40.278Z,74.50
2019-03-28T07:48:08.512Z,73.80
2019-03-28T07:50:37.647Z,72.90
2019-03-28T07:53:05.719Z,71.70
2019-03-28T07:55:33.823Z,70.80
2019-03-28T07:58:07.259Z,70.40
2019-03-28T08:00:35.514Z,69.90
2019-03-28T08:03:03.670Z,69.80
2019-03-28T08:05:31.853Z,70.60
2019-03-28T08:08:01.153Z,71.30
2019-03-28T08:10:29.107Z,71.50
2019-03-28T08:12:57.211Z,72.00
2019-03-28T08:15:26.022Z,71.40
2019-03-28T08:17:54.840Z,70.80
2019-03-28T08:20:23.440Z,69.70
2019-03-28T08:22:52.005Z,68.40
2019-03-28T08:25:21.234Z,66.90
2019-03-28T08:27:50.498Z,65.80
2019-03-28T08:30:24.215Z,64.30
2019-03-28T08:32:54.414Z,63.10
2019-03-28T08:35:23.062Z,61.30
2019-03-28T08:37:51.662Z,60.00
2019-03-28T08:40:34.748Z,59.90
2019-03-28T08:43:03.377Z,60.10
2019-03-28T08:45:32.279Z,62.20
2019-03-28T08:50:49.766Z,62.70
2019-03-28T08:53:18.105Z,63.50
2019-03-28T08:55:46.223Z,63.80
2019-03-28T08:58:14.706Z,63.30
2019-03-28T09:00:51.735Z,62.30
2019-03-28T09:03:13.275Z,61.90
2019-03-28T09:05:41.391Z,61.20
2019-03-28T09:08:10.011Z,61.00
2019-03-28T09:10:40.563Z,59.90
2019-03-28T09:13:09.367Z,58.30
2019-03-28T09:15:44.022Z,56.40
2019-03-28T09:18:14.298Z,55.60
2019-03-28T09:20:47.239Z,54.70
2019-03-28T09:23:19.076Z,54.50
2019-03-28T09:25:49.764Z,54.20
2019-03-28T09:28:19.119Z,54.40
2019-03-28T09:31:03.726Z,54.80
2019-03-28T09:33:34.049Z,54.70
2019-03-28T09:36:02.846Z,54.70
2019-03-28T09:38:33.125Z,53.20
2019-03-28T09:41:03.569Z,50.70
2019-03-28T09:43:38.169Z,49.00
2019-03-28T09:46:10.284Z,47.90
2019-03-28T09:48:42.327Z,46.70
2019-03-28T09:51:11.228Z,46.90
2019-03-28T09:53:44.068Z,47.90
2019-03-28T09:59:02.282Z,49.60
2019-03-28T10:04:21.877Z,49.90
2019-03-28T10:06:50.409Z,49.50
2019-03-28T10:09:20.086Z,50.50
2019-03-28T10:11:52.388Z,50.80
2019-03-28T10:14:22.690Z,50.70
2019-03-28T10:16:51.539Z,50.40
2019-03-28T10:19:23.273Z,50.10
2019-03-28T10:21:52.196Z,48.90
2019-03-28T10:24:21.149Z,47.50
2019-03-28T10:26:52.361Z,45.90
2019-03-28T10:29:21.651Z,44.20
2019-03-28T10:31:52.205Z,41.60
2019-03-28T10:34:21.113Z,41.20
2019-03-28T10:36:51.047Z,37.10
2019-03-28T10:39:19.584Z,37.30
2019-03-28T10:41:49.795Z,38.50
2019-03-28T10:44:18.505Z,39.70
2019-03-28T10:46:48.881Z,40.90
2019-03-28T10:49:17.457Z,42.30
2019-03-28T10:51:49.279Z,43.40
2019-03-28T10:54:20.541Z,44.10
2019-03-28T10:56:52.160Z,44.60
2019-03-28T10:59:23.609Z,44.80
2019-03-28T11:01:51.122Z,44.50
2019-03-28T11:04:22.562Z,43.80
2019-03-28T11:06:51.752Z,43.20
2019-03-28T11:09:21.063Z,42.90
2019-03-28T11:11:51.441Z,42.30
2019-03-28T11:14:21.843Z,41.80
2019-03-28T11:16:50.985Z,41.40
2019-03-28T11:19:19.763Z,40.90
2019-03-28T11:21:50.330Z,40.70
2019-03-28T11:24:18.904Z,40.60
2019-03-28T11:26:48.574Z,40.20
2019-03-28T11:29:17.140Z,40.50
2019-03-28T11:31:50.566Z,40.80
2019-03-28T11:34:16.968Z,41.10
2019-03-28T11:36:46.036Z,41.90
2019-03-28T11:39:15.037Z,42.60
2019-03-28T11:41:44.052Z,43.00
2019-03-28T11:44:14.232Z,43.30
2019-03-28T11:46:44.640Z,43.00
2019-03-28T11:49:13.596Z,43.20
2019-03-28T11:51:42.229Z,43.40
2019-03-28T11:54:24.287Z,43.80
2019-03-28T11:56:53.247Z,43.80
2019-03-28T11:59:22.856Z,43.80
2019-03-28T12:01:59.933Z,43.30
2019-03-28T12:04:22.144Z,43.10
2019-03-28T12:06:50.740Z,42.60
2019-03-28T12:09:20.157Z,42.00
2019-03-28T12:11:52.763Z,41.50
2019-03-28T12:14:20.181Z,41.60
2019-03-28T12:16:50.895Z,41.60
2019-03-28T12:19:19.792Z,41.40
2019-03-28T12:21:48.652Z,41.70
2019-03-28T12:24:23.622Z,41.40
2019-03-28T12:26:52.375Z,41.50
2019-03-28T12:29:23.781Z,41.40
2019-03-28T12:31:52.741Z,41.40
2019-03-28T12:34:21.435Z,41.40
2019-03-28T12:36:50.603Z,41.10
2019-03-28T12:39:19.450Z,41.00
2019-03-28T12:41:49.093Z,41.60
2019-03-28T12:44:17.902Z,41.20
2019-03-28T12:46:53.791Z,41.70
2019-03-28T12:49:25.349Z,41.10
2019-03-28T12:51:56.968Z,41.30
2019-03-28T12:54:25.622Z,41.20
2019-03-28T12:56:58.163Z,41.60
2019-03-28T12:59:26.418Z,41.90
2019-03-28T13:01:55.230Z,42.50
2019-03-28T13:04:24.427Z,42.60
2019-03-28T13:06:53.235Z,42.60
2019-03-28T13:09:23.563Z,42.40
2019-03-28T13:11:52.677Z,42.40
2019-03-28T13:14:26.412Z,42.60
2019-03-28T13:16:54.980Z,42.60
2019-03-28T13:19:22.925Z,42.50
2019-03-28T13:21:51.696Z,42.60
2019-03-28T13:24:22.502Z,42.90
2019-03-28T13:26:51.320Z,42.90
2019-03-28T13:29:20.330Z,43.10
2019-03-28T13:31:49.448Z,42.90
2019-03-28T13:34:19.141Z,43.10
2019-03-28T13:36:49.244Z,43.30
2019-03-28T13:39:19.171Z,43.10
2019-03-28T13:41:50.275Z,42.60
2019-03-28T13:44:20.178Z,42.80
2019-03-28T13:46:49.559Z,42.90
2019-03-28T13:49:18.450Z,43.30
2019-03-28T13:51:50.226Z,43.40
2019-03-28T13:54:23.022Z,43.60
2019-03-28T13:56:50.598Z,43.70
2019-03-28T13:59:18.667Z,43.60
2019-03-28T14:01:47.261Z,43.90
2019-03-28T14:04:15.628Z,43.90
2019-03-28T14:06:43.800Z,44.10
2019-03-28T14:09:13.615Z,44.30
2019-03-28T14:11:43.883Z,44.40
2019-03-28T14:14:13.455Z,44.30
2019-03-28T14:16:41.642Z,44.20
2019-03-28T14:19:11.348Z,44.20
2019-03-28T14:21:41.114Z,44.20
2019-03-28T14:24:11.586Z,44.20
2019-03-28T14:26:40.420Z,43.50
2019-03-28T14:29:08.674Z,43.40
2019-03-28T14:31:38.156Z,43.40
2019-03-28T14:34:07.793Z,43.20
2019-03-28T14:36:36.016Z,43.30
2019-03-28T14:39:07.117Z,43.60
2019-03-28T14:41:35.485Z,43.90
2019-03-28T14:44:03.402Z,43.60
2019-03-28T14:46:31.382Z,43.80
2019-03-28T14:49:00.651Z,44.00
2019-03-28T14:51:28.938Z,44.40
2019-03-28T14:53:58.959Z,44.50
2019-03-28T14:56:29.587Z,44.50
2019-03-28T14:58:58.527Z,44.60
2019-03-28T15:01:26.982Z,44.70
2019-03-28T15:03:55.155Z,45.00
2019-03-28T15:06:24.588Z,45.20
2019-03-28T15:08:53.052Z,45.60
2019-03-28T15:11:21.361Z,45.70
2019-03-28T15:13:49.492Z,45.70
2019-03-28T15:16:17.654Z,45.90
2019-03-28T15:18:45.614Z,46.60
2019-03-28T15:21:14.305Z,48.10
2019-03-28T15:23:42.521Z,49.50
2019-03-28T15:26:10.697Z,50.60
2019-03-28T15:28:38.647Z,51.20
2019-03-28T15:31:08.311Z,51.30
2019-03-28T15:33:39.771Z,51.60
2019-03-28T15:36:06.408Z,51.80
2019-03-28T15:38:36.503Z,52.10
2019-03-28T15:41:04.729Z,52.20
2019-03-28T15:43:33.330Z,52.70
2019-03-28T15:46:01.345Z,53.10
2019-03-28T15:48:30.690Z,53.40
2019-03-28T15:50:58.975Z,53.70
2019-03-28T15:53:27.114Z,54.10
2019-03-28T15:55:55.366Z,54.60
2019-03-28T15:58:23.972Z,54.80
2019-03-28T16:00:52.093Z,55.20
2019-03-28T16:03:21.976Z,55.40
2019-03-28T16:05:57.970Z,55.30
2019-03-28T16:08:19.716Z,54.90
2019-03-28T16:10:47.781Z,55.00
2019-03-28T16:13:17.503Z,55.10
2019-03-28T16:15:45.597Z,55.30
2019-03-28T16:18:13.788Z,55.10
2019-03-28T16:20:42.098Z,54.40
2019-03-28T16:23:10.111Z,54.20
2019-03-28T16:25:38.367Z,53.80
2019-03-28T16:28:06.589Z,53.90
2019-03-28T16:30:36.814Z,54.00
2019-03-28T16:33:08.249Z,54.20
2019-03-28T16:35:36.354Z,55.20
2019-03-28T16:38:04.692Z,54.60
2019-03-28T16:40:32.829Z,55.10
2019-03-28T16:43:01.164Z,53.80
2019-03-28T16:45:29.622Z,55.00
2019-03-28T16:47:57.684Z,56.00
2019-03-28T16:50:27.799Z,56.50
2019-03-28T16:52:57.262Z,56.70
2019-03-28T16:55:26.439Z,57.20
2019-03-28T16:57:54.882Z,57.40
2019-03-28T17:00:24.633Z,57.60
2019-03-28T17:02:52.624Z,57.40
2019-03-28T17:05:20.824Z,57.70
2019-03-28T17:07:49.329Z,57.70
2019-03-28T17:10:19.084Z,57.70
2019-03-28T17:12:47.355Z,58.00
2019-03-28T17:15:15.535Z,58.10
2019-03-28T17:17:43.907Z,58.30
2019-03-28T17:20:12.144Z,58.40
2019-03-28T17:22:40.381Z,58.20
2019-03-28T17:25:09.804Z,57.80
2019-03-28T17:27:38.041Z,56.70
2019-03-28T17:30:07.319Z,55.60
2019-03-28T17:32:36.911Z,55.00
2019-03-28T17:35:05.438Z,54.90
2019-03-28T17:37:33.576Z,55.20
2019-03-28T17:40:01.984Z,55.60
2019-03-28T17:42:30.658Z,56.10
2019-03-28T17:44:59.607Z,56.60
2019-03-28T17:47:27.983Z,57.50
2019-03-28T17:49:56.794Z,55.10
2019-03-28T17:52:24.859Z,55.80
2019-03-28T17:54:53.887Z,55.70
2019-03-28T17:57:23.252Z,55.40
2019-03-28T17:59:51.751Z,56.10
2019-03-28T18:02:19.968Z,56.40
2019-03-28T18:04:51.094Z,56.70
2019-03-28T18:07:19.505Z,56.90
2019-03-28T18:09:48.197Z,56.70
2019-03-28T18:12:16.689Z,56.60
2019-03-28T18:14:45.055Z,56.70
2019-03-28T18:17:13.286Z,57.00
2019-03-28T18:19:41.984Z,57.20
2019-03-28T18:22:10.481Z,57.30
2019-03-28T18:24:39.302Z,57.50
2019-03-28T18:27:07.543Z,57.90
2019-03-28T18:29:36.024Z,57.90
2019-03-28T18:32:04.853Z,58.10
2019-03-28T18:34:32.885Z,58.40
2019-03-28T18:37:01.499Z,58.50
2019-03-28T18:39:29.821Z,59.30
2019-03-28T18:41:57.996Z,59.00
2019-03-28T18:44:26.330Z,59.30
2019-03-28T18:46:54.716Z,59.60
2019-03-28T18:49:22.860Z,60.10
2019-03-28T18:51:51.062Z,60.10
2019-03-28T18:54:20.364Z,60.60
2019-03-28T18:56:48.708Z,61.00
2019-03-28T18:59:19.137Z,61.50
2019-03-28T19:01:47.491Z,61.90
2019-03-28T19:04:15.772Z,62.30
2019-03-28T19:06:44.013Z,62.70
2019-03-28T19:09:12.430Z,62.80
2019-03-28T19:11:41.329Z,63.40
2019-03-28T19:14:09.478Z,63.70
2019-03-28T19:16:37.841Z,63.70
2019-03-28T19:19:06.024Z,63.70
2019-03-28T19:21:34.135Z,64.00
2019-03-28T19:24:02.291Z,63.80
2019-03-28T19:26:30.758Z,61.80
2019-03-28T19:28:59.597Z,62.20
2019-03-28T19:31:27.716Z,63.30
2019-03-28T19:33:55.862Z,64.40
2019-03-28T19:36:24.257Z,64.80
2019-03-28T19:38:52.475Z,65.20
2019-03-28T19:41:20.846Z,65.80
2019-03-28T19:43:49.840Z,66.70
2019-03-28T19:46:18.133Z,67.10
2019-03-28T19:48:46.907Z,67.50
2019-03-28T19:51:15.232Z,68.10
2019-03-28T19:53:43.996Z,68.90
2019-03-28T19:56:12.656Z,69.30
2019-03-28T19:58:40.934Z,69.50
2019-03-28T20:01:09.782Z,70.10
2019-03-28T20:03:38.184Z,70.90
2019-03-28T20:06:06.417Z,70.30
2019-03-28T20:08:34.612Z,71.00
2019-03-28T20:11:02.754Z,71.20
2019-03-28T20:13:31.138Z,71.20
2019-03-28T20:16:01.870Z,71.30
2019-03-28T20:18:30.152Z,71.30
2019-03-28T20:20:58.099Z,71.00
2019-03-28T20:23:26.129Z,70.80
2019-03-28T20:25:53.966Z,70.50
2019-03-28T20:28:21.876Z,70.00
2019-03-28T20:30:50.111Z,69.30
2019-03-28T20:33:18.902Z,68.90
2019-03-28T20:36:00.515Z,68.60
2019-03-28T20:38:16.410Z,68.40
2019-03-28T20:40:44.350Z,67.70
2019-03-28T20:43:12.294Z,67.60
2019-03-28T20:45:40.288Z,67.50
2019-03-28T20:48:08.567Z,67.50
2019-03-28T20:50:36.527Z,67.30
2019-03-28T20:53:04.752Z,67.20
2019-03-28T20:55:32.724Z,67.30
2019-03-28T20:58:00.630Z,67.30
2019-03-28T21:00:33.075Z,67.30
2019-03-28T21:03:03.185Z,67.30
2019-03-28T21:05:30.601Z,67.60
2019-03-28T21:07:58.567Z,67.60
2019-03-28T21:10:26.511Z,67.70
2019-03-28T21:12:54.479Z,67.70
2019-03-28T21:15:22.345Z,67.80
2019-03-28T21:17:50.235Z,67.90
2019-03-28T21:20:18.281Z,68.00
2019-03-28T21:22:46.752Z,68.30
2019-03-28T21:25:14.858Z,68.70
2019-03-28T21:27:42.757Z,68.90
2019-03-28T21:30:12.230Z,69.00
2019-03-28T21:32:40.137Z,69.20
2019-03-28T21:35:08.335Z,69.30
2019-03-28T21:37:38.153Z,69.50
2019-03-28T21:40:06.299Z,69.70
2019-03-28T21:42:34.371Z,69.70
2019-03-28T21:45:02.458Z,70.10
2019-03-28T21:47:30.535Z,70.40
2019-03-28T21:49:59.486Z,70.50
2019-03-28T21:52:27.614Z,70.60
2019-03-28T21:54:57.072Z,70.60
2019-03-28T21:57:25.005Z,71.80
2019-03-28T21:59:52.947Z,72.60
2019-03-28T22:02:20.810Z,73.50
2019-03-28T22:04:48.708Z,74.30
2019-03-28T22:07:16.661Z,74.50
2019-03-28T22:09:44.637Z,75.00
2019-03-28T22:12:12.544Z,75.40
2019-03-28T22:14:43.556Z,75.50
2019-03-28T22:17:11.632Z,75.80
2019-03-28T22:19:39.978Z,76.40
2019-03-28T22:22:08.092Z,77.30
2019-03-28T22:24:38.845Z,78.20
2019-03-28T22:27:05.444Z,78.70
2019-03-28T22:29:33.706Z,80.50
2019-03-28T22:32:02.039Z,80.90
2019-03-28T22:34:30.232Z,81.70
2019-03-28T22:36:59.931Z,82.80
2019-03-28T22:39:28.241Z,82.30
2019-03-28T22:41:56.316Z,82.60
2019-03-28T22:44:24.976Z,83.00
2019-03-28T22:46:55.253Z,83.30
2019-03-28T22:49:23.110Z,83.90
2019-03-28T22:51:52.822Z,84.10
2019-03-28T22:54:20.702Z,84.50
2019-03-28T22:56:49.903Z,84.70
2019-03-28T22:59:18.082Z,85.10
2019-03-28T23:01:46.054Z,85.30
2019-03-28T23:04:14.208Z,85.60
2019-03-28T23:06:42.131Z,86.00
2019-03-28T23:09:10.176Z,86.20
2019-03-28T23:11:40.530Z,86.80
2019-03-28T23:14:07.546Z,87.10
2019-03-28T23:16:35.502Z,87.30
2019-03-28T23:19:03.399Z,87.90
2019-03-28T23:21:31.761Z,87.90
2019-03-28T23:24:00.139Z,88.30
2019-03-28T23:26:27.999Z,88.20
2019-03-28T23:28:57.403Z,88.20
2019-03-28T23:31:25.259Z,88.30
2019-03-28T23:33:53.226Z,88.70
2019-03-28T23:36:21.095Z,88.80
2019-03-28T23:38:49.156Z,89.00
2019-03-28T23:41:17.183Z,89.80
2019-03-28T23:43:45.028Z,89.10
2019-03-28T23:46:12.897Z,89.50
2019-03-28T23:48:40.793Z,90.00
2019-03-28T23:51:08.961Z,90.10
2019-03-28T23:53:36.942Z,90.10
2019-03-28T23:56:05.028Z,90.20
2019-03-28T23:58:32.912Z,90.40
